Time;durP1;ratioP1;P1;durP2;ratioP2;P2;SDS_P1;SDS_P2;PMS_P1;PMS_P2;Temp;Humidity;BMP_temperature;BMP_pressure;BME280_temperature;BME280_humidity;BME280_pressure;Samples;Min_cycle;Max_cycle;Signal;HPM_P1;HPM_P2
2021/05/24 00:00:38;;;;;;;5.37;3.10;;;;;;;11.98;55.14;96625.88;5078878;28;20489;-67
2021/05/24 00:03:04;;;;;;;5.03;3.33;;;;;;;11.98;55.13;96623.25;5087541;28;20800;-68
2021/05/24 00:05:33;;;;;;;5.07;3.60;;;;;;;11.92;55.82;96611.63;5091264;28;20435;-68
2021/05/24 00:07:59;;;;;;;5.00;3.27;;;;;;;11.94;55.67;96601.75;5091314;28;20189;-67
2021/05/24 00:10:27;;;;;;;6.40;3.20;;;;;;;11.86;55.67;96593.13;5092665;28;20416;-67
2021/05/24 00:12:55;;;;;;;9.57;3.53;;;;;;;11.64;56.38;96599.03;5090242;28;20208;-69
2021/05/24 00:15:26;;;;;;;5.43;3.40;;;;;;;11.67;56.12;96592.59;5088596;28;20422;-68
2021/05/24 00:17:52;;;;;;;5.30;2.93;;;;;;;11.73;55.88;96591.91;5090573;28;20419;-68
2021/05/24 00:20:23;;;;;;;4.83;3.50;;;;;;;11.72;55.76;96577.13;5090154;28;20504;-67
2021/05/24 00:22:49;;;;;;;5.53;3.20;;;;;;;11.68;56.29;96581.13;5082894;28;20465;-68
2021/05/24 00:25:16;;;;;;;6.00;3.70;;;;;;;11.63;56.10;96571.16;5091638;28;20803;-68
2021/05/24 00:27:42;;;;;;;3.50;3.20;;;;;;;11.65;56.25;96573.59;5091616;28;20432;-68
2021/05/24 00:30:08;;;;;;;5.03;3.80;;;;;;;11.63;56.41;96579.03;5091179;28;20506;-67
2021/05/24 00:32:34;;;;;;;5.17;3.23;;;;;;;11.58;56.78;96588.41;5092933;28;20857;-66
2021/05/24 00:35:00;;;;;;;6.97;3.63;;;;;;;11.59;57.05;96582.97;5093540;28;20431;-66
2021/05/24 00:37:25;;;;;;;3.40;3.00;;;;;;;11.62;57.04;96584.44;5093373;28;20212;-67
2021/05/24 00:39:51;;;;;;;4.60;3.40;;;;;;;11.62;56.95;96582.63;5095290;28;20205;-68
2021/05/24 00:42:17;;;;;;;6.33;3.00;;;;;;;11.60;56.74;96570.66;5094950;28;20284;-67
2021/05/24 00:44:43;;;;;;;3.80;2.53;;;;;;;11.56;57.10;96564.94;5094794;28;20496;-67
2021/05/24 00:47:09;;;;;;;3.70;3.10;;;;;;;11.55;56.96;96559.88;5093046;28;20220;-68
2021/05/24 00:49:34;;;;;;;7.60;3.27;;;;;;;11.37;57.70;96547.84;5093111;28;20918;-68
2021/05/24 00:52:00;;;;;;;6.03;3.10;;;;;;;11.48;57.26;96544.00;5092855;28;20186;-66
2021/05/24 00:54:26;;;;;;;4.97;2.90;;;;;;;11.48;57.05;96536.16;5093910;28;20272;-67
2021/05/24 00:56:53;;;;;;;3.93;3.30;;;;;;;11.47;57.26;96529.25;5094429;28;20340;-67
2021/05/24 00:59:19;;;;;;;6.20;3.50;;;;;;;11.42;57.41;96529.78;5094327;28;20467;-68
2021/05/24 01:01:45;;;;;;;3.20;2.90;;;;;;;11.43;57.68;96539.28;5092607;28;20529;-68
2021/05/24 01:04:12;;;;;;;6.27;3.80;;;;;;;11.40;57.33;96537.00;5094341;28;20797;-67
2021/05/24 01:06:37;;;;;;;5.50;3.37;;;;;;;11.43;57.36;96544.53;5094518;28;20182;-67
2021/05/24 01:09:03;;;;;;;5.43;3.67;;;;;;;11.36;57.76;96533.09;5093697;28;20431;-68
2021/05/24 01:11:29;;;;;;;5.20;3.53;;;;;;;11.36;58.08;96540.97;5077908;28;20546;-67
2021/05/24 01:13:55;;;;;;;7.87;4.20;;;;;;;11.32;57.94;96523.97;5093110;28;20455;-67
2021/05/24 01:16:21;;;;;;;4.70;3.87;;;;;;;11.36;58.16;96520.81;5092974;28;20178;-68
2021/05/24 01:18:46;;;;;;;9.47;4.20;;;;;;;11.38;57.87;96518.00;5080052;28;20179;-67
2021/05/24 01:21:13;;;;;;;6.77;3.93;;;;;;;11.39;57.88;96522.25;5091524;28;20924;-68
2021/05/24 01:23:40;;;;;;;7.90;3.90;;;;;;;11.36;57.86;96518.19;5094140;28;20250;-67
2021/05/24 01:26:07;;;;;;;5.23;3.53;;;;;;;11.36;58.00;96512.94;5093171;28;20952;-68
2021/05/24 01:28:33;;;;;;;4.03;3.70;;;;;;;11.34;57.68;96507.03;5093187;28;20443;-68
2021/05/24 01:31:00;;;;;;;6.03;4.13;;;;;;;11.33;58.15;96504.59;5074013;28;20464;-67
2021/05/24 01:33:26;;;;;;;6.07;3.73;;;;;;;11.32;57.90;96497.72;5085565;28;20441;-66
2021/05/24 01:35:51;;;;;;;5.87;4.03;;;;;;;11.21;58.76;96502.34;5085552;28;20438;-68
2021/05/24 01:38:17;;;;;;;6.30;4.47;;;;;;;11.27;58.83;96494.78;5092205;28;20186;-68
2021/05/24 01:40:44;;;;;;;5.93;4.00;;;;;;;11.31;58.62;96490.84;5094618;28;20201;-67
2021/05/24 01:43:10;;;;;;;4.23;3.57;;;;;;;11.31;58.16;96489.03;5092704;28;20205;-68
2021/05/24 01:45:38;;;;;;;5.27;3.43;;;;;;;11.31;58.25;96477.72;5094216;28;20423;-67
2021/05/24 01:48:05;;;;;;;7.70;3.87;;;;;;;11.27;58.33;96486.94;5094138;28;20185;-67
2021/05/24 01:50:31;;;;;;;9.30;3.90;;;;;;;11.26;58.96;96495.78;5082484;28;20457;-68
2021/05/24 01:52:57;;;;;;;4.70;3.50;;;;;;;11.28;58.67;96493.81;5086294;28;20972;-66
2021/05/24 01:55:23;;;;;;;3.73;2.90;;;;;;;11.28;58.57;96485.94;5094440;28;20423;-68
2021/05/24 01:57:48;;;;;;;4.17;3.10;;;;;;;11.27;58.38;96493.00;5093867;28;20561;-69
2021/05/24 02:00:21;;;;;;;12.13;3.30;;;;;;;11.27;58.13;96489.53;5094410;28;20232;-68
2021/05/24 02:02:47;;;;;;;6.47;3.20;;;;;;;11.22;58.19;96490.88;5096372;28;20240;-68
2021/05/24 02:05:15;;;;;;;4.23;3.07;;;;;;;11.16;58.27;96494.22;5100820;28;20427;-67
2021/05/24 02:07:41;;;;;;;5.70;3.20;;;;;;;11.14;58.19;96482.25;5096497;28;20424;-67
2021/05/24 02:10:09;;;;;;;4.20;2.80;;;;;;;11.12;58.18;96482.41;5093980;28;20817;-66
2021/05/24 02:12:35;;;;;;;3.20;2.70;;;;;;;11.10;57.84;96476.53;5094206;28;20531;-67
2021/05/24 02:15:01;;;;;;;4.93;2.70;;;;;;;11.10;57.71;96489.63;5093555;28;20881;-68
2021/05/24 02:17:27;;;;;;;2.90;2.30;;;;;;;11.09;57.22;96488.00;5088339;28;20201;-67
2021/05/24 02:19:53;;;;;;;3.07;2.10;;;;;;;11.13;56.93;96473.56;5094610;28;20538;-68
2021/05/24 02:22:19;;;;;;;2.23;2.03;;;;;;;11.16;56.41;96467.97;5094823;28;20225;-68
2021/05/24 02:24:44;;;;;;;5.07;1.97;;;;;;;11.15;56.24;96468.16;5094526;28;20455;-68
2021/05/24 02:27:10;;;;;;;2.30;2.00;;;;;;;11.15;56.02;96463.72;5092373;28;20542;-67
2021/05/24 02:29:36;;;;;;;3.47;2.03;;;;;;;11.22;55.53;96469.88;5092650;28;20182;-67
2021/05/24 02:32:03;;;;;;;3.33;1.90;;;;;;;11.27;55.48;96458.06;5090535;28;20190;-67
2021/05/24 02:34:28;;;;;;;4.00;2.13;;;;;;;11.28;54.74;96450.00;5091381;28;20503;-67
2021/05/24 02:36:54;;;;;;;2.57;1.37;;;;;;;11.30;54.67;96437.53;5091088;28;20798;-67
2021/05/24 02:39:20;;;;;;;1.40;1.30;;;;;;;11.36;54.77;96436.84;5090481;28;20221;-67
2021/05/24 02:41:45;;;;;;;3.13;1.60;;;;;;;11.42;54.17;96451.06;5092849;28;20201;-67
2021/05/24 02:44:12;;;;;;;2.80;2.00;;;;;;;11.47;54.09;96445.31;5091122;28;20672;-67
2021/05/24 02:46:37;;;;;;;3.13;1.60;;;;;;;11.52;53.95;96430.66;5081642;28;20194;-67
2021/05/24 02:49:03;;;;;;;4.33;1.70;;;;;;;11.57;53.73;96431.94;5087111;28;20420;-70
2021/05/24 02:51:29;;;;;;;5.30;2.30;;;;;;;11.46;53.75;96430.53;5090725;28;20423;-66
2021/05/24 02:53:55;;;;;;;3.50;1.70;;;;;;;11.53;53.73;96424.41;5091091;28;20803;-67
2021/05/24 02:56:21;;;;;;;2.07;1.77;;;;;;;11.61;53.32;96422.69;5068758;28;20244;-68
2021/05/24 02:58:46;;;;;;;2.50;1.43;;;;;;;11.61;53.27;96415.66;5080924;28;20213;-68
2021/05/24 03:01:13;;;;;;;1.83;1.60;;;;;;;11.51;53.53;96426.41;5089615;28;20189;-67
2021/05/24 03:03:40;;;;;;;1.93;1.70;;;;;;;11.61;53.10;96430.56;5090981;28;20190;-68
2021/05/24 03:06:06;;;;;;;4.03;1.57;;;;;;;11.65;52.79;96426.59;5092240;28;20498;-67
2021/05/24 03:08:32;;;;;;;2.80;2.03;;;;;;;11.71;53.08;96425.91;5092384;28;20428;-67
2021/05/24 03:10:58;;;;;;;4.47;2.03;;;;;;;11.74;52.58;96429.97;5075353;28;20263;-70
2021/05/24 03:13:25;;;;;;;3.53;2.20;;;;;;;11.74;52.83;96424.72;5078834;28;20844;-68
2021/05/24 03:15:54;;;;;;;1.53;1.43;;;;;;;11.76;52.84;96430.63;5071128;28;20435;-68
2021/05/24 03:18:20;;;;;;;1.90;1.73;;;;;;;11.78;52.65;96424.19;5091455;28;20422;-68
2021/05/24 03:20:48;;;;;;;1.60;1.50;;;;;;;11.80;52.67;96431.88;5069218;28;20512;-68
2021/05/24 03:23:14;;;;;;;2.43;1.60;;;;;;;11.77;52.85;96432.25;5076130;28;20195;-69
2021/05/24 03:25:40;;;;;;;2.40;1.40;;;;;;;11.72;52.95;96448.50;5076533;28;20416;-67
2021/05/24 03:28:05;;;;;;;1.77;1.50;;;;;;;11.74;52.93;96436.03;5071273;28;20859;-68
2021/05/24 03:30:31;;;;;;;1.87;1.63;;;;;;;11.74;52.96;96433.41;5078878;28;20170;-67
2021/05/24 03:32:57;;;;;;;2.33;1.80;;;;;;;11.70;53.02;96426.06;5069529;28;20228;-67
2021/05/24 03:35:22;;;;;;;1.97;1.60;;;;;;;11.71;53.06;96436.41;5066559;28;20231;-68
2021/05/24 03:37:48;;;;;;;1.80;1.33;;;;;;;11.71;52.46;96433.78;5076007;28;20265;-67
2021/05/24 03:40:15;;;;;;;2.23;1.73;;;;;;;11.72;52.55;96424.09;5078972;28;20203;-66
2021/05/24 03:42:41;;;;;;;1.73;1.40;;;;;;;11.74;52.26;96430.78;5071611;28;20218;-68
2021/05/24 03:45:11;;;;;;;1.50;1.37;;;;;;;11.78;52.04;96426.81;5071803;28;20417;-67
2021/05/24 03:47:37;;;;;;;1.87;1.30;;;;;;;11.82;51.69;96424.63;5071580;28;20423;-68
2021/05/24 03:50:04;;;;;;;3.80;1.23;;;;;;;11.83;51.71;96419.22;5071454;28;20911;-66
2021/05/24 03:52:29;;;;;;;1.67;1.43;;;;;;;11.84;51.81;96422.66;5067882;28;20691;-68
2021/05/24 03:54:55;;;;;;;5.43;1.63;;;;;;;11.82;51.79;96422.84;5065835;28;20439;-66
2021/05/24 03:57:21;;;;;;;3.77;1.43;;;;;;;11.81;51.87;96413.34;5069828;28;20193;-67
2021/05/24 03:59:46;;;;;;;1.97;1.47;;;;;;;11.81;51.62;96410.72;5070952;28;20560;-67
2021/05/24 04:02:12;;;;;;;6.23;1.40;;;;;;;11.84;51.59;96415.59;5072976;28;20194;-68
2021/05/24 04:04:39;;;;;;;4.90;1.73;;;;;;;11.82;51.52;96406.25;5077819;28;20186;-67
2021/05/24 04:07:05;;;;;;;3.30;1.50;;;;;;;11.87;51.60;96413.59;5082873;28;20179;-67
2021/05/24 04:09:31;;;;;;;2.37;1.37;;;;;;;11.87;51.75;96421.47;5075281;28;20437;-68
2021/05/24 04:11:57;;;;;;;1.90;1.37;;;;;;;11.88;51.07;96416.06;5083195;28;20935;-67
2021/05/24 04:14:22;;;;;;;2.90;1.50;;;;;;;11.96;51.01;96405.47;5065120;28;20413;-68
2021/05/24 04:16:48;;;;;;;2.10;1.40;;;;;;;12.03;51.09;96402.97;5073407;28;20208;-67
2021/05/24 04:19:14;;;;;;;1.60;1.50;;;;;;;12.04;51.06;96404.59;5074388;28;20229;-67
2021/05/24 04:21:41;;;;;;;2.30;1.40;;;;;;;12.07;51.00;96404.25;5074947;28;20653;-67
2021/05/24 04:24:07;;;;;;;2.10;1.50;;;;;;;12.09;50.97;96402.25;5067278;28;20695;-66
2021/05/24 04:26:33;;;;;;;1.73;1.30;;;;;;;12.13;50.72;96408.75;5074826;28;20486;-67
2021/05/24 04:28:59;;;;;;;2.23;1.50;;;;;;;12.18;50.88;96407.41;5073995;28;20432;-66
2021/05/24 04:31:24;;;;;;;1.93;1.50;;;;;;;12.22;50.92;96398.19;5074377;28;20217;-66
2021/05/24 04:33:50;;;;;;;4.83;1.97;;;;;;;12.09;51.78;96410.13;5080030;28;20221;-67
2021/05/24 04:36:16;;;;;;;2.07;1.50;;;;;;;11.80;53.51;96410.88;5074504;28;20611;-67
2021/05/24 04:38:41;;;;;;;2.97;1.30;;;;;;;12.00;52.59;96403.31;5074087;28;20175;-67
2021/05/24 04:41:07;;;;;;;4.83;1.67;;;;;;;12.08;51.96;96410.28;5074163;28;20573;-67
2021/05/24 04:43:34;;;;;;;1.70;1.60;;;;;;;11.99;52.07;96393.81;5074085;28;20235;-67
2021/05/24 04:46:00;;;;;;;2.73;1.63;;;;;;;12.10;51.40;96392.56;5074000;28;20938;-67
2021/05/24 04:48:25;;;;;;;3.13;1.57;;;;;;;12.04;51.73;96404.59;5078044;28;20463;-67
2021/05/24 04:50:51;;;;;;;3.97;1.57;;;;;;;12.17;51.34;96392.63;5079208;28;20260;-68
2021/05/24 04:53:18;;;;;;;2.17;1.60;;;;;;;12.36;51.34;96392.06;5063310;28;20214;-66
2021/05/24 04:55:44;;;;;;;3.10;1.60;;;;;;;12.37;50.97;96396.31;5074219;28;20178;-68
2021/05/24 04:58:11;;;;;;;2.50;1.60;;;;;;;12.50;51.14;96376.47;5073972;28;20478;-68
2021/05/24 05:00:37;;;;;;;1.37;1.20;;;;;;;12.43;51.02;96377.22;5074114;28;20489;-67
2021/05/24 05:03:02;;;;;;;1.57;1.37;;;;;;;12.50;51.54;96379.09;5055763;28;20452;-67
2021/05/24 05:05:28;;;;;;;1.70;1.50;;;;;;;12.36;51.47;96391.25;5073638;28;20413;-68
2021/05/24 05:07:53;;;;;;;4.43;1.93;;;;;;;12.41;51.22;96379.19;5073752;28;20182;-65
2021/05/24 05:10:19;;;;;;;3.73;1.50;;;;;;;12.32;50.96;96385.56;5073812;28;20265;-67
2021/05/24 05:12:45;;;;;;;2.10;1.30;;;;;;;12.37;50.90;96398.94;5073065;28;20210;-68
2021/05/24 05:15:11;;;;;;;5.53;1.60;;;;;;;12.64;50.69;96383.50;5073592;28;20527;-67
2021/05/24 05:17:36;;;;;;;2.00;1.80;;;;;;;12.81;50.29;96389.34;5083823;28;20652;-68
2021/05/24 05:20:03;;;;;;;1.50;1.20;;;;;;;12.64;50.61;96380.88;5093245;28;20225;-65
2021/05/24 05:22:29;;;;;;;2.60;1.40;;;;;;;12.58;50.88;96390.31;5069009;28;20200;-67
2021/05/24 05:24:55;;;;;;;1.50;1.40;;;;;;;12.98;50.05;96370.69;5073706;28;20508;-66
2021/05/24 05:27:20;;;;;;;1.17;1.03;;;;;;;13.03;49.24;96369.13;5072307;28;20186;-67
2021/05/24 05:29:46;;;;;;;1.47;1.10;;;;;;;13.19;48.96;96373.31;5079641;28;20261;-67
2021/05/24 05:32:11;;;;;;;1.70;1.53;;;;;;;13.34;48.55;96381.16;5072848;28;20546;-67
2021/05/24 05:34:37;;;;;;;2.03;1.40;;;;;;;13.54;48.09;96375.25;5080569;28;20258;-67
2021/05/24 05:37:03;;;;;;;4.83;1.30;;;;;;;13.55;47.96;96374.25;5092107;28;20212;-65
2021/05/24 05:39:28;;;;;;;1.70;1.40;;;;;;;13.74;47.41;96377.19;5086926;28;20198;-67
2021/05/24 05:41:54;;;;;;;3.50;1.50;;;;;;;13.95;47.23;96373.69;5094556;28;20186;-67
2021/05/24 05:44:20;;;;;;;3.00;1.50;;;;;;;13.71;47.63;96381.03;5093996;28;20181;-67
2021/05/24 05:46:45;;;;;;;2.17;1.30;;;;;;;13.64;47.62;96374.91;5094288;28;20199;-67
2021/05/24 05:49:11;;;;;;;1.60;1.23;;;;;;;14.05;47.22;96368.06;5091832;28;20252;-67
2021/05/24 05:51:37;;;;;;;1.27;1.17;;;;;;;14.01;46.83;96361.56;5078676;28;20181;-67
2021/05/24 05:54:03;;;;;;;1.23;1.03;;;;;;;14.20;46.15;96355.59;5086340;28;20308;-66
2021/05/24 05:56:28;;;;;;;1.10;1.00;;;;;;;14.39;45.84;96358.47;5052072;28;20534;-66
2021/05/24 05:58:54;;;;;;;3.10;1.53;;;;;;;14.45;45.51;96349.81;5085527;28;20427;-66
2021/05/24 06:01:21;;;;;;;2.03;1.37;;;;;;;14.66;45.25;96355.94;5093625;28;20273;-67
2021/05/24 06:03:47;;;;;;;3.47;1.23;;;;;;;14.81;45.11;96356.63;5077147;28;20243;-67
2021/05/24 06:06:13;;;;;;;4.93;1.37;;;;;;;14.96;44.64;96347.72;5093294;28;20415;-68
2021/05/24 06:08:39;;;;;;;3.13;1.70;;;;;;;15.07;44.87;96339.19;5093314;28;20247;-67
2021/05/24 06:11:05;;;;;;;1.63;1.23;;;;;;;15.25;44.91;96335.16;5090966;28;20400;-67
2021/05/24 06:13:31;;;;;;;4.23;2.10;;;;;;;15.25;45.56;96345.72;5092771;28;21098;-67
2021/05/24 06:15:56;;;;;;;7.73;3.67;;;;;;;15.34;45.43;96347.13;5092873;28;20408;-67
2021/05/24 06:18:22;;;;;;;2.00;1.50;;;;;;;15.46;45.08;96342.88;5086355;28;20174;-67
2021/05/24 06:20:48;;;;;;;7.30;3.23;;;;;;;15.59;45.36;96349.16;5095529;28;20194;-68
2021/05/24 06:23:14;;;;;;;1.77;1.27;;;;;;;15.73;44.91;96342.84;5090762;28;20239;-67
2021/05/24 06:25:41;;;;;;;1.20;1.10;;;;;;;15.90;44.38;96345.03;5075791;28;20170;-67
2021/05/24 06:28:07;;;;;;;3.07;1.23;;;;;;;15.87;43.81;96337.56;5096136;28;20938;-68
2021/05/24 06:30:33;;;;;;;1.77;1.40;;;;;;;16.01;44.26;96338.31;5092841;28;20422;-68
2021/05/24 06:32:59;;;;;;;3.53;1.57;;;;;;;16.22;44.16;96339.88;5091055;28;20947;-67
2021/05/24 06:35:25;;;;;;;1.67;0.90;;;;;;;16.38;43.82;96349.16;5099919;28;20174;-68
2021/05/24 06:37:50;;;;;;;5.67;3.10;;;;;;;16.48;43.63;96338.16;5096420;28;20176;-68
2021/05/24 06:40:16;;;;;;;4.03;1.70;;;;;;;16.57;43.50;96331.59;5096191;28;20482;-66
2021/05/24 06:42:43;;;;;;;1.87;1.23;;;;;;;16.66;43.29;96340.88;5095078;28;20221;-67
2021/05/24 06:45:10;;;;;;;1.20;1.00;;;;;;;16.81;42.88;96337.13;5077036;28;20190;-67
2021/05/24 06:47:36;;;;;;;1.97;1.40;;;;;;;16.94;42.67;96341.56;5094125;28;20431;-66
2021/05/24 06:50:04;;;;;;;2.20;1.40;;;;;;;16.94;42.71;96334.44;5094355;28;20412;-67
2021/05/24 06:52:30;;;;;;;1.60;1.30;;;;;;;17.08;42.88;96343.09;5083981;28;20448;-67
2021/05/24 06:54:56;;;;;;;1.67;1.37;;;;;;;17.20;42.43;96337.91;5096845;28;20411;-67
2021/05/24 06:57:21;;;;;;;3.93;1.20;;;;;;;17.32;42.68;96338.84;5092554;28;20200;-68
2021/05/24 06:59:47;;;;;;;2.00;1.57;;;;;;;17.49;42.19;96333.00;5092169;28;20452;-67
2021/05/24 07:02:15;;;;;;;2.03;1.10;;;;;;;17.57;41.51;96340.66;5091358;28;20294;-67
2021/05/24 07:04:40;;;;;;;3.17;1.30;;;;;;;17.69;41.59;96337.28;5080102;28;20635;-67
2021/05/24 07:07:06;;;;;;;1.77;1.50;;;;;;;17.78;41.37;96335.97;5090690;28;20416;-67
2021/05/24 07:09:32;;;;;;;2.17;1.57;;;;;;;17.81;40.72;96336.38;5090004;28;20174;-66
2021/05/24 07:11:57;;;;;;;2.20;1.70;;;;;;;17.91;40.78;96330.53;5092154;28;20644;-68
2021/05/24 07:14:23;;;;;;;2.00;1.50;;;;;;;18.16;39.96;96353.53;5088384;28;20273;-68
2021/05/24 07:16:50;;;;;;;1.67;1.30;;;;;;;18.37;39.29;96344.31;5087640;28;20173;-68
2021/05/24 07:19:15;;;;;;;1.30;1.20;;;;;;;18.42;39.34;96346.31;5091881;28;20288;-68
2021/05/24 07:21:41;;;;;;;3.17;2.03;;;;;;;18.29;39.13;96341.16;5092856;28;20462;-67
2021/05/24 07:24:07;;;;;;;1.90;1.17;;;;;;;18.29;39.55;96342.00;5082586;28;20206;-67
2021/05/24 07:26:33;;;;;;;1.80;1.43;;;;;;;18.33;39.33;96331.75;5092379;28;20170;-67
2021/05/24 07:28:58;;;;;;;3.50;1.33;;;;;;;18.19;38.60;96329.25;5090572;28;20833;-68
2021/05/24 07:31:24;;;;;;;1.80;0.93;;;;;;;18.22;38.05;96336.75;5091904;28;20252;-68
2021/05/24 07:33:49;;;;;;;3.83;2.23;;;;;;;18.30;38.56;96342.78;5078872;28;20224;-68
2021/05/24 07:36:15;;;;;;;3.73;1.60;;;;;;;18.38;37.73;96334.53;5076006;28;20202;-68
2021/05/24 07:38:40;;;;;;;1.40;1.00;;;;;;;18.46;36.42;96333.44;5089302;28;20605;-68
2021/05/24 07:41:06;;;;;;;1.50;1.20;;;;;;;18.23;36.87;96326.97;5091950;28;20212;-67
2021/05/24 07:43:32;;;;;;;1.87;1.00;;;;;;;18.05;36.29;96319.81;5081226;28;20190;-66
2021/05/24 07:45:57;;;;;;;1.10;0.80;;;;;;;18.05;36.24;96330.44;5084098;28;20234;-68
2021/05/24 07:48:23;;;;;;;3.67;1.00;;;;;;;18.37;35.98;96317.81;5082722;28;20279;-67
2021/05/24 07:50:49;;;;;;;1.23;0.90;;;;;;;18.54;36.21;96320.63;5090116;28;20552;-67
2021/05/24 07:53:15;;;;;;;1.90;1.60;;;;;;;18.79;35.92;96325.00;5091596;28;20605;-67
2021/05/24 07:55:40;;;;;;;1.10;0.90;;;;;;;18.62;35.96;96313.41;5091811;28;20412;-67
2021/05/24 07:58:07;;;;;;;1.93;0.97;;;;;;;18.35;36.25;96313.78;5082390;28;20209;-67
2021/05/24 08:00:32;;;;;;;2.13;1.37;;;;;;;18.61;36.65;96311.78;5091157;28;20190;-68
2021/05/24 08:02:58;;;;;;;2.23;1.10;;;;;;;18.86;36.56;96307.16;5078015;28;20627;-66
2021/05/24 08:05:24;;;;;;;2.90;1.20;;;;;;;18.98;36.46;96309.03;5090356;28;20170;-67
2021/05/24 08:07:49;;;;;;;5.00;1.90;;;;;;;18.92;36.00;96301.94;5092053;28;20184;-68
2021/05/24 08:10:16;;;;;;;1.73;1.13;;;;;;;18.78;36.42;96302.16;5091397;28;20626;-67
2021/05/24 08:12:43;;;;;;;1.63;1.20;;;;;;;18.90;36.37;96296.09;5091703;28;20220;-67
2021/05/24 08:15:16;;;;;;;1.60;1.00;;;;;;;19.00;36.20;96294.50;5089959;28;20435;-68
2021/05/24 08:17:42;;;;;;;1.80;1.10;;;;;;;19.21;36.50;96294.19;5075051;28;20433;-67
2021/05/24 08:20:08;;;;;;;1.63;0.80;;;;;;;19.11;36.72;96290.25;5088180;28;20451;-66
2021/05/24 08:22:35;;;;;;;1.50;0.90;;;;;;;19.11;37.12;96290.25;5084335;28;20239;-66
2021/05/24 08:25:00;;;;;;;2.40;1.20;;;;;;;19.37;36.96;96293.50;5089055;28;20421;-66
2021/05/24 08:27:26;;;;;;;4.27;1.10;;;;;;;19.33;36.75;96290.50;5091262;28;21028;-66
2021/05/24 08:29:51;;;;;;;1.30;0.80;;;;;;;19.19;37.35;96292.56;5090956;28;20636;-67
2021/05/24 08:32:17;;;;;;;2.07;1.00;;;;;;;19.08;37.79;96280.09;5088579;28;20206;-66
2021/05/24 08:34:43;;;;;;;2.17;1.20;;;;;;;19.17;37.47;96268.06;5080209;28;20182;-67
2021/05/24 08:37:08;;;;;;;1.30;1.20;;;;;;;19.25;37.47;96274.09;5071849;28;20196;-67
2021/05/24 08:39:34;;;;;;;2.37;1.00;;;;;;;19.46;37.38;96265.56;5091360;28;20649;-67
2021/05/24 08:41:59;;;;;;;2.43;1.20;;;;;;;19.38;37.50;96268.56;5090304;28;20185;-67
2021/05/24 08:44:26;;;;;;;2.43;1.03;;;;;;;19.73;37.15;96262.41;5090528;28;20177;-67
2021/05/24 08:46:52;;;;;;;1.33;1.10;;;;;;;19.99;36.55;96265.63;5091667;28;20202;-67
2021/05/24 08:49:17;;;;;;;2.47;1.00;;;;;;;20.33;35.92;96259.63;5090894;28;20941;-67
2021/05/24 08:51:43;;;;;;;1.20;1.10;;;;;;;20.30;35.18;96265.41;5093284;28;20197;-67
2021/05/24 08:54:09;;;;;;;1.60;1.00;;;;;;;20.58;34.54;96269.91;5093979;28;20211;-67
2021/05/24 08:56:34;;;;;;;1.60;1.20;;;;;;;20.86;34.23;96260.28;5093001;28;20535;-67
2021/05/24 08:59:01;;;;;;;1.77;1.00;;;;;;;20.38;34.49;96255.19;5094441;28;20624;-67
2021/05/24 09:01:27;;;;;;;2.93;1.10;;;;;;;20.86;33.81;96255.75;5076316;28;20182;-68
2021/05/24 09:04:04;;;;;;;2.77;1.00;;;;;;;21.08;33.63;96238.25;5080623;28;20480;-66
2021/05/24 09:06:41;;;;;;;1.83;1.00;;;;;;;21.52;32.90;96243.69;5094029;28;20415;-66
2021/05/24 09:09:12;;;;;;;1.13;1.00;;;;;;;21.74;32.21;96237.59;5094061;28;20906;-67
2021/05/24 09:11:38;;;;;;;1.40;1.10;;;;;;;20.53;33.82;96244.00;5094060;28;20443;-68
2021/05/24 09:14:18;;;;;;;3.00;0.90;;;;;;;21.33;32.79;96243.97;5092456;28;20435;-65
2021/05/24 09:16:46;;;;;;;1.53;1.00;;;;;;;21.52;32.40;96232.22;5094079;28;20478;-68
2021/05/24 09:19:14;;;;;;;2.60;0.80;;;;;;;22.06;31.25;96226.22;5092194;28;20430;-67
2021/05/24 09:21:47;;;;;;;1.87;0.90;;;;;;;21.52;31.69;96235.69;5092723;28;20408;-66
2021/05/24 09:24:34;;;;;;;1.40;0.80;;;;;;;21.72;30.95;96229.03;5092248;28;20530;-67
2021/05/24 09:27:01;;;;;;;1.10;0.73;;;;;;;22.27;30.66;96234.47;5093607;28;20510;-67
2021/05/24 09:29:40;;;;;;;1.00;0.80;;;;;;;22.42;30.46;96221.31;5093725;28;20419;-67
2021/05/24 09:32:17;;;;;;;2.17;0.80;;;;;;;22.77;29.73;96222.69;5076920;28;20428;-67
2021/05/24 09:34:45;;;;;;;16.60;0.90;;;;;;;22.79;29.60;96223.25;5082298;28;20408;-68
2021/05/24 09:37:11;;;;;;;1.10;0.70;;;;;;;22.32;30.09;96221.19;5094147;28;20901;-66
2021/05/24 09:39:37;;;;;;;1.00;0.70;;;;;;;22.32;29.96;96226.50;5091129;28;20475;-67
2021/05/24 09:42:14;;;;;;;1.60;0.90;;;;;;;22.67;29.12;96222.63;5096102;28;20415;-67
2021/05/24 09:44:47;;;;;;;3.63;1.00;;;;;;;22.59;29.61;96220.41;5094468;28;20424;-67
2021/05/24 09:47:14;;;;;;;3.17;1.00;;;;;;;22.67;29.25;96212.72;5094023;28;20416;-68
2021/05/24 09:49:39;;;;;;;1.40;0.90;;;;;;;22.98;29.17;96210.31;5093935;28;20845;-67
2021/05/24 09:52:05;;;;;;;3.10;1.00;;;;;;;22.99;28.38;96208.44;5091686;28;20408;-68
2021/05/24 09:54:38;;;;;;;1.40;0.80;;;;;;;22.79;29.00;96206.41;5092335;28;20196;-67
2021/05/24 09:57:10;;;;;;;1.10;0.80;;;;;;;22.90;29.07;96201.97;5091368;28;20181;-67
2021/05/24 09:59:36;;;;;;;1.43;0.70;;;;;;;23.17;28.23;96200.03;5083191;28;20448;-66
2021/05/24 10:02:05;;;;;;;1.40;1.07;;;;;;;23.24;28.36;96199.84;5095287;28;20779;-67
2021/05/24 10:04:33;;;;;;;1.67;0.80;;;;;;;22.86;29.03;96199.81;5080462;28;20485;-67
2021/05/24 10:07:02;;;;;;;1.70;1.03;;;;;;;23.04;28.57;96200.47;5091719;28;20925;-67
2021/05/24 10:09:31;;;;;;;1.10;0.90;;;;;;;22.80;29.37;96200.84;5093842;28;20427;-68
2021/05/24 10:11:59;;;;;;;0.90;0.70;;;;;;;22.94;29.44;96185.16;5094495;28;20419;-68
2021/05/24 10:14:25;;;;;;;1.13;0.80;;;;;;;22.98;29.05;96177.44;5076959;28;21189;-66
2021/05/24 10:16:55;;;;;;;2.63;0.90;;;;;;;23.01;28.87;96167.03;5076872;28;20428;-68
2021/05/24 10:19:21;;;;;;;3.33;0.60;;;;;;;22.25;29.53;96158.16;5092614;28;20440;-67
2021/05/24 10:21:48;;;;;;;1.37;0.77;;;;;;;22.72;29.79;96168.44;5092893;28;20508;-68
2021/05/24 10:24:14;;;;;;;1.00;0.70;;;;;;;23.24;28.76;96166.94;5093231;28;20263;-66
2021/05/24 10:26:41;;;;;;;2.10;0.87;;;;;;;23.19;27.74;96162.34;5092998;28;20442;-68
2021/05/24 10:29:07;;;;;;;1.17;0.70;;;;;;;23.20;27.46;96169.34;5087645;28;20423;-67
2021/05/24 10:31:33;;;;;;;1.93;1.10;;;;;;;23.34;27.16;96164.31;5092016;28;20420;-68
2021/05/24 10:34:15;;;;;;;1.93;0.70;;;;;;;23.17;27.43;96169.81;5077530;28;20300;-68
2021/05/24 10:36:43;;;;;;;4.37;2.60;;;;;;;23.63;26.85;96164.72;5091652;28;20400;-68
2021/05/24 10:39:22;;;;;;;6.23;3.10;;;;;;;23.42;27.04;96153.16;5090300;28;20469;-68
2021/05/24 10:41:58;;;;;;;2.27;1.07;;;;;;;23.27;27.73;96166.44;5092277;28;20447;-67
2021/05/24 10:44:38;;;;;;;2.40;1.40;;;;;;;23.09;28.04;96165.75;5075773;28;20835;-67
2021/05/24 10:47:25;;;;;;;1.00;0.70;;;;;;;22.98;28.88;96158.75;5092203;28;20814;-68
2021/05/24 10:50:02;;;;;;;1.13;0.80;;;;;;;23.04;28.21;96160.41;5090029;28;20844;-68
2021/05/24 10:52:28;;;;;;;2.60;0.60;;;;;;;22.92;28.09;96154.44;5082599;28;20937;-66
2021/05/24 10:54:54;;;;;;;1.20;0.87;;;;;;;22.77;28.52;96155.94;5089660;28;20515;-67
2021/05/24 10:57:20;;;;;;;1.60;0.80;;;;;;;22.79;27.41;96145.00;5091624;28;20510;-66
2021/05/24 10:59:48;;;;;;;4.33;1.30;;;;;;;23.17;27.46;96149.25;5077226;28;20210;-67
2021/05/24 11:02:16;;;;;;;3.07;1.73;;;;;;;22.77;27.24;96157.78;5088443;28;20218;-68
2021/05/24 11:04:48;;;;;;;2.00;1.00;;;;;;;23.25;26.81;96142.63;5072482;28;20485;-67
2021/05/24 11:07:34;;;;;;;3.70;1.17;;;;;;;23.10;26.96;96148.66;5091903;28;20423;-66
2021/05/24 11:10:17;;;;;;;1.13;0.90;;;;;;;23.52;26.38;96135.53;5091985;28;20419;-67
2021/05/24 11:12:44;;;;;;;1.40;0.80;;;;;;;23.36;23.82;96132.78;5095459;28;20443;-68
2021/05/24 11:15:14;;;;;;;1.30;0.80;;;;;;;23.36;24.12;96135.47;5099642;28;20444;-67
2021/05/24 11:17:59;;;;;;;1.00;0.70;;;;;;;23.17;23.89;96125.22;5093088;28;20416;-66
2021/05/24 11:20:34;;;;;;;4.60;0.80;;;;;;;23.80;23.65;96125.47;5091121;28;20576;-68
2021/05/24 11:28:59;;;;;;;3.20;1.00;;;;;;;24.11;22.12;96128.22;5093071;28;20442;-67
2021/05/24 11:31:26;;;;;;;3.80;2.50;;;;;;;24.23;21.66;96123.41;5089889;28;20420;-67
2021/05/24 11:33:54;;;;;;;2.07;1.33;;;;;;;24.12;21.52;96124.47;5077716;28;20448;-66
2021/05/24 11:36:39;;;;;;;1.67;0.70;;;;;;;24.01;22.20;96120.97;5085416;28;20420;-67
2021/05/24 11:39:08;;;;;;;2.70;1.10;;;;;;;22.21;24.12;96122.34;5071021;28;20417;-67